Tropical Cyclones
[Index]
Main Index Home Page Stock Weather Photos Extreme Storms Discussion Storm News and Storm Chasing Reports Tropical Cyclones / Hurricanes / Typhoons Weather Data and Links Wild Fires / Bushfires Weather Observation Techniques Weather Picture Catalogue Tornado Pictures and Reports Stock Video Footage and DVDs for sale
Season 1988-1989 Tropical Cyclone KIRRILY Track Map
Season 1988-1989 Summaries: [BoM-AU] [JTWC-AU] [JTWC-SIO] [JTWC-SPAC] [JTWC-SH]
<<- Previous TC | JTWC 1988-1989 Season | Next TC ->>

click for intensity scale information  Lat/long Grid: Show Hide

 Date Labels: Show Hide

Joint Typhoon Warning Centre Cyclone Data

Name: KIRRILY

05 Feb 1989 00:00 UTC to 10 Feb 1989 12:00 UTC

    date/time    lat    long     hPa   cat  kts
1989-02-05 00   11.0   108.5                  25          
1989-02-05 06   11.4   108.8                  25          
1989-02-05 12   11.8   109.2                  25          
1989-02-05 18   12.3   109.6                  25          
1989-02-06 00   13.1   109.8                  30          
1989-02-06 06   13.7   109.9                  30          
1989-02-06 12   14.5   109.9                  35          
1989-02-06 18   15.2   109.9            1     40          
1989-02-07 00   15.8   109.8            1     50          
1989-02-07 06   16.4   109.8            2     55          
1989-02-07 12   16.8   109.8            1     50          
1989-02-07 18   17.3   109.8            1     50          
1989-02-08 00   17.8   109.7            1     50          
1989-02-08 06   18.3   109.6            1     50          
1989-02-08 12   18.8   109.3            1     45          
1989-02-08 18   19.3   108.7            1     50          
1989-02-09 00   19.9   108.0            2     65          
1989-02-09 06   20.7   107.3            3     75          
1989-02-09 12   21.7   106.8            2     70          
1989-02-09 18   22.7   106.2            2     60          
1989-02-10 00   23.7   105.1            1     45          
1989-02-10 06   24.3   103.8                  35          
1989-02-10 12   24.5   103.1                  25          
Winds are 1-min average.

Tropical cyclone tracks developed by Michael Bath using data from the Joint Typhoon Warning Centre Best Tracks and Google Maps.


[Australian Severe Weather index] [Copyright Notice] [Email Contacts] [Search This Site] [Privacy Policy]
Document: tropical_cyclone_kirrily.htm Updated: 18 September 2016